sensor_id;sensor_type;location;lat;lon;timestamp;temperature;humidity
19680;DHT22;9989;48.962;9.182;2023-02-28T00:01:04;1.70;80.40
19680;DHT22;9989;48.962;9.182;2023-02-28T00:03:29;1.60;80.50
19680;DHT22;9989;48.962;9.182;2023-02-28T00:05:55;1.60;80.70
19680;DHT22;9989;48.962;9.182;2023-02-28T00:08:21;1.70;81.00
19680;DHT22;9989;48.962;9.182;2023-02-28T00:10:46;1.60;81.20
19680;DHT22;9989;48.962;9.182;2023-02-28T00:13:12;1.60;81.60
19680;DHT22;9989;48.962;9.182;2023-02-28T00:15:38;1.50;81.90
19680;DHT22;9989;48.962;9.182;2023-02-28T00:18:04;1.60;82.10
19680;DHT22;9989;48.962;9.182;2023-02-28T00:20:30;1.60;82.50
19680;DHT22;9989;48.962;9.182;2023-02-28T00:22:56;1.60;82.50
19680;DHT22;9989;48.962;9.182;2023-02-28T00:25:24;1.60;83.10
19680;DHT22;9989;48.962;9.182;2023-02-28T00:27:50;1.60;82.90
19680;DHT22;9989;48.962;9.182;2023-02-28T00:30:21;1.60;82.80
19680;DHT22;9989;48.962;9.182;2023-02-28T00:32:48;1.50;83.40
19680;DHT22;9989;48.962;9.182;2023-02-28T00:35:15;1.40;83.50
19680;DHT22;9989;48.962;9.182;2023-02-28T00:37:41;1.40;83.70
19680;DHT22;9989;48.962;9.182;2023-02-28T00:40:07;1.40;84.70
19680;DHT22;9989;48.962;9.182;2023-02-28T00:42:34;1.40;84.00
19680;DHT22;9989;48.962;9.182;2023-02-28T00:45:00;1.50;84.30
19680;DHT22;9989;48.962;9.182;2023-02-28T00:47:26;1.40;84.30
19680;DHT22;9989;48.962;9.182;2023-02-28T00:49:51;1.50;84.50
19680;DHT22;9989;48.962;9.182;2023-02-28T00:52:17;1.50;84.60
19680;DHT22;9989;48.962;9.182;2023-02-28T00:54:43;1.50;85.00
19680;DHT22;9989;48.962;9.182;2023-02-28T00:57:08;1.50;85.10
19680;DHT22;9989;48.962;9.182;2023-02-28T00:59:34;1.50;85.00
19680;DHT22;9989;48.962;9.182;2023-02-28T01:02:00;1.50;85.40
19680;DHT22;9989;48.962;9.182;2023-02-28T01:04:25;1.40;85.60
19680;DHT22;9989;48.962;9.182;2023-02-28T01:06:51;1.40;85.80
19680;DHT22;9989;48.962;9.182;2023-02-28T01:09:16;1.40;86.10
19680;DHT22;9989;48.962;9.182;2023-02-28T01:11:42;1.40;86.20
19680;DHT22;9989;48.962;9.182;2023-02-28T01:14:15;1.40;86.50
19680;DHT22;9989;48.962;9.182;2023-02-28T01:16:41;1.30;86.90
19680;DHT22;9989;48.962;9.182;2023-02-28T01:19:07;1.30;87.10
19680;DHT22;9989;48.962;9.182;2023-02-28T01:21:33;1.30;87.40
19680;DHT22;9989;48.962;9.182;2023-02-28T01:24:00;1.30;87.60
19680;DHT22;9989;48.962;9.182;2023-02-28T01:26:25;1.20;88.20
19680;DHT22;9989;48.962;9.182;2023-02-28T01:28:52;1.20;88.20
19680;DHT22;9989;48.962;9.182;2023-02-28T01:31:19;1.10;88.70
19680;DHT22;9989;48.962;9.182;2023-02-28T01:33:45;1.10;88.80
19680;DHT22;9989;48.962;9.182;2023-02-28T01:38:36;1.10;89.20
19680;DHT22;9989;48.962;9.182;2023-02-28T01:41:03;1.10;89.50
19680;DHT22;9989;48.962;9.182;2023-02-28T01:43:53;1.20;89.70
19680;DHT22;9989;48.962;9.182;2023-02-28T01:46:19;1.20;90.00
19680;DHT22;9989;48.962;9.182;2023-02-28T01:48:53;1.20;90.10
19680;DHT22;9989;48.962;9.182;2023-02-28T01:51:33;1.20;90.30
19680;DHT22;9989;48.962;9.182;2023-02-28T01:54:03;1.20;90.40
19680;DHT22;9989;48.962;9.182;2023-02-28T01:56:33;1.20;90.70
19680;DHT22;9989;48.962;9.182;2023-02-28T01:59:00;1.20;90.90
19680;DHT22;9989;48.962;9.182;2023-02-28T02:01:27;1.20;91.00
19680;DHT22;9989;48.962;9.182;2023-02-28T02:03:55;1.10;91.20
19680;DHT22;9989;48.962;9.182;2023-02-28T02:06:23;1.10;91.50
19680;DHT22;9989;48.962;9.182;2023-02-28T02:08:50;1.00;91.70
19680;DHT22;9989;48.962;9.182;2023-02-28T02:11:18;1.00;92.00
19680;DHT22;9989;48.962;9.182;2023-02-28T02:18:54;0.80;92.90
19680;DHT22;9989;48.962;9.182;2023-02-28T02:35:14;0.90;94.30
19680;DHT22;9989;48.962;9.182;2023-02-28T02:38:31;0.90;94.40
19680;DHT22;9989;48.962;9.182;2023-02-28T02:41:17;0.90;94.60
19680;DHT22;9989;48.962;9.182;2023-02-28T02:44:11;0.90;94.80
19680;DHT22;9989;48.962;9.182;2023-02-28T02:46:42;0.90;95.00
19680;DHT22;9989;48.962;9.182;2023-02-28T02:49:13;0.90;95.60
19680;DHT22;9989;48.962;9.182;2023-02-28T02:51:41;0.90;95.60
19680;DHT22;9989;48.962;9.182;2023-02-28T02:54:23;0.90;95.90
19680;DHT22;9989;48.962;9.182;2023-02-28T02:56:53;0.90;95.90
19680;DHT22;9989;48.962;9.182;2023-02-28T02:59:21;0.90;96.00
19680;DHT22;9989;48.962;9.182;2023-02-28T03:01:51;0.90;96.20
19680;DHT22;9989;48.962;9.182;2023-02-28T03:04:20;0.90;96.30
19680;DHT22;9989;48.962;9.182;2023-02-28T03:06:47;0.90;96.50
19680;DHT22;9989;48.962;9.182;2023-02-28T03:09:13;0.90;96.70
19680;DHT22;9989;48.962;9.182;2023-02-28T03:11:39;0.90;97.00
19680;DHT22;9989;48.962;9.182;2023-02-28T03:27:21;1.00;97.80
19680;DHT22;9989;48.962;9.182;2023-02-28T03:30:09;1.10;97.70
19680;DHT22;9989;48.962;9.182;2023-02-28T03:35:32;1.20;97.90
19680;DHT22;9989;48.962;9.182;2023-02-28T03:38:16;1.20;97.80
19680;DHT22;9989;48.962;9.182;2023-02-28T03:40:48;1.20;97.90
19680;DHT22;9989;48.962;9.182;2023-02-28T03:43:18;1.30;97.90
19680;DHT22;9989;48.962;9.182;2023-02-28T03:45:46;1.30;98.00
19680;DHT22;9989;48.962;9.182;2023-02-28T03:48:19;1.40;97.90
19680;DHT22;9989;48.962;9.182;2023-02-28T03:50:50;1.40;97.80
19680;DHT22;9989;48.962;9.182;2023-02-28T03:53:27;1.40;97.80
19680;DHT22;9989;48.962;9.182;2023-02-28T03:56:08;1.30;97.80
19680;DHT22;9989;48.962;9.182;2023-02-28T03:58:55;1.30;97.90
19680;DHT22;9989;48.962;9.182;2023-02-28T04:01:26;1.40;98.10
19680;DHT22;9989;48.962;9.182;2023-02-28T04:03:53;1.40;98.00
19680;DHT22;9989;48.962;9.182;2023-02-28T04:06:21;1.30;98.00
19680;DHT22;9989;48.962;9.182;2023-02-28T04:08:47;1.40;98.20
19680;DHT22;9989;48.962;9.182;2023-02-28T04:13:44;1.50;98.30
19680;DHT22;9989;48.962;9.182;2023-02-28T04:16:10;1.50;98.20
19680;DHT22;9989;48.962;9.182;2023-02-28T04:18:46;1.50;98.20
19680;DHT22;9989;48.962;9.182;2023-02-28T04:21:12;1.50;98.30
19680;DHT22;9989;48.962;9.182;2023-02-28T04:23:41;1.60;98.10
19680;DHT22;9989;48.962;9.182;2023-02-28T04:26:07;1.50;98.10
19680;DHT22;9989;48.962;9.182;2023-02-28T04:28:33;1.50;98.30
19680;DHT22;9989;48.962;9.182;2023-02-28T04:31:04;1.60;98.30
19680;DHT22;9989;48.962;9.182;2023-02-28T04:33:32;1.70;98.30
19680;DHT22;9989;48.962;9.182;2023-02-28T04:36:05;1.70;98.10
19680;DHT22;9989;48.962;9.182;2023-02-28T04:38:35;1.60;98.10
19680;DHT22;9989;48.962;9.182;2023-02-28T04:41:01;1.60;98.10
19680;DHT22;9989;48.962;9.182;2023-02-28T04:43:28;1.60;98.40
19680;DHT22;9989;48.962;9.182;2023-02-28T04:45:57;1.50;98.30
19680;DHT22;9989;48.962;9.182;2023-02-28T04:48:28;1.50;98.50
19680;DHT22;9989;48.962;9.182;2023-02-28T04:50:54;1.50;98.50
19680;DHT22;9989;48.962;9.182;2023-02-28T04:53:20;1.50;98.70
19680;DHT22;9989;48.962;9.182;2023-02-28T04:55:46;1.60;98.80
19680;DHT22;9989;48.962;9.182;2023-02-28T04:58:13;1.60;98.70
19680;DHT22;9989;48.962;9.182;2023-02-28T05:00:39;1.60;98.70
19680;DHT22;9989;48.962;9.182;2023-02-28T05:03:04;1.60;98.70
19680;DHT22;9989;48.962;9.182;2023-02-28T05:05:30;1.70;98.60
19680;DHT22;9989;48.962;9.182;2023-02-28T05:07:55;1.60;98.30
19680;DHT22;9989;48.962;9.182;2023-02-28T05:10:22;1.60;98.30
19680;DHT22;9989;48.962;9.182;2023-02-28T05:12:48;1.60;98.60
19680;DHT22;9989;48.962;9.182;2023-02-28T05:15:15;1.60;98.60
19680;DHT22;9989;48.962;9.182;2023-02-28T05:17:41;1.50;98.60
19680;DHT22;9989;48.962;9.182;2023-02-28T05:20:07;1.50;98.70
19680;DHT22;9989;48.962;9.182;2023-02-28T05:22:36;1.50;98.80
19680;DHT22;9989;48.962;9.182;2023-02-28T05:25:04;1.60;98.70
19680;DHT22;9989;48.962;9.182;2023-02-28T05:27:32;1.50;98.70
19680;DHT22;9989;48.962;9.182;2023-02-28T05:29:58;1.50;98.80
19680;DHT22;9989;48.962;9.182;2023-02-28T05:32:24;1.50;98.90
19680;DHT22;9989;48.962;9.182;2023-02-28T05:34:50;1.50;99.00
19680;DHT22;9989;48.962;9.182;2023-02-28T05:37:16;1.50;99.00
19680;DHT22;9989;48.962;9.182;2023-02-28T05:39:42;1.50;98.90
19680;DHT22;9989;48.962;9.182;2023-02-28T05:42:08;1.40;98.90
19680;DHT22;9989;48.962;9.182;2023-02-28T05:44:34;1.40;99.00
19680;DHT22;9989;48.962;9.182;2023-02-28T05:47:00;1.40;99.20
19680;DHT22;9989;48.962;9.182;2023-02-28T05:49:25;1.50;99.10
19680;DHT22;9989;48.962;9.182;2023-02-28T05:51:51;1.40;99.00
19680;DHT22;9989;48.962;9.182;2023-02-28T05:54:16;1.40;99.30
19680;DHT22;9989;48.962;9.182;2023-02-28T05:56:42;1.40;99.30
19680;DHT22;9989;48.962;9.182;2023-02-28T05:59:11;1.40;99.40
19680;DHT22;9989;48.962;9.182;2023-02-28T06:01:45;1.40;99.80
19680;DHT22;9989;48.962;9.182;2023-02-28T06:04:14;1.50;99.70
19680;DHT22;9989;48.962;9.182;2023-02-28T06:06:44;1.50;99.50
19680;DHT22;9989;48.962;9.182;2023-02-28T06:09:10;1.40;99.50
19680;DHT22;9989;48.962;9.182;2023-02-28T06:11:35;1.40;99.60
19680;DHT22;9989;48.962;9.182;2023-02-28T06:14:02;1.40;99.70
19680;DHT22;9989;48.962;9.182;2023-02-28T06:16:29;1.50;99.80
19680;DHT22;9989;48.962;9.182;2023-02-28T06:18:58;1.50;99.60
19680;DHT22;9989;48.962;9.182;2023-02-28T06:21:24;1.50;99.60
19680;DHT22;9989;48.962;9.182;2023-02-28T06:23:50;1.50;99.60
19680;DHT22;9989;48.962;9.182;2023-02-28T06:26:15;1.50;99.50
19680;DHT22;9989;48.962;9.182;2023-02-28T06:28:41;1.50;99.50
19680;DHT22;9989;48.962;9.182;2023-02-28T06:31:12;1.50;99.70
19680;DHT22;9989;48.962;9.182;2023-02-28T06:33:39;1.50;99.70
19680;DHT22;9989;48.962;9.182;2023-02-28T06:36:06;1.50;99.60
19680;DHT22;9989;48.962;9.182;2023-02-28T06:38:32;1.50;99.70
19680;DHT22;9989;48.962;9.182;2023-02-28T06:40:59;1.60;99.90
19680;DHT22;9989;48.962;9.182;2023-02-28T06:43:28;1.60;99.80
19680;DHT22;9989;48.962;9.182;2023-02-28T06:45:58;1.50;99.70
19680;DHT22;9989;48.962;9.182;2023-02-28T06:48:26;1.50;99.90
19680;DHT22;9989;48.962;9.182;2023-02-28T06:50:51;1.50;99.80
19680;DHT22;9989;48.962;9.182;2023-02-28T06:53:17;1.60;99.80
19680;DHT22;9989;48.962;9.182;2023-02-28T06:55:43;1.60;99.70
19680;DHT22;9989;48.962;9.182;2023-02-28T06:58:09;1.60;99.60
19680;DHT22;9989;48.962;9.182;2023-02-28T07:00:44;1.70;99.50
19680;DHT22;9989;48.962;9.182;2023-02-28T07:03:11;1.70;99.60
19680;DHT22;9989;48.962;9.182;2023-02-28T07:05:37;1.80;99.50
19680;DHT22;9989;48.962;9.182;2023-02-28T07:08:04;1.70;99.40
19680;DHT22;9989;48.962;9.182;2023-02-28T07:10:32;1.70;99.40
19680;DHT22;9989;48.962;9.182;2023-02-28T07:12:58;1.70;99.60
19680;DHT22;9989;48.962;9.182;2023-02-28T07:15:24;1.70;99.60
19680;DHT22;9989;48.962;9.182;2023-02-28T07:17:49;1.70;99.90
19680;DHT22;9989;48.962;9.182;2023-02-28T07:20:16;1.80;99.80
19680;DHT22;9989;48.962;9.182;2023-02-28T07:22:41;1.80;99.70
19680;DHT22;9989;48.962;9.182;2023-02-28T07:25:07;1.90;99.80
19680;DHT22;9989;48.962;9.182;2023-02-28T07:27:33;1.80;99.20
19680;DHT22;9989;48.962;9.182;2023-02-28T07:30:00;1.80;99.30
19680;DHT22;9989;48.962;9.182;2023-02-28T07:32:27;1.70;99.40
19680;DHT22;9989;48.962;9.182;2023-02-28T07:34:53;1.70;99.70
19680;DHT22;9989;48.962;9.182;2023-02-28T07:37:20;1.70;99.70
19680;DHT22;9989;48.962;9.182;2023-02-28T07:39:46;1.70;99.90
19680;DHT22;9989;48.962;9.182;2023-02-28T07:42:11;1.80;99.90
19680;DHT22;9989;48.962;9.182;2023-02-28T07:44:41;1.80;99.70
19680;DHT22;9989;48.962;9.182;2023-02-28T07:47:10;1.80;99.50
19680;DHT22;9989;48.962;9.182;2023-02-28T07:49:36;1.80;99.60
19680;DHT22;9989;48.962;9.182;2023-02-28T07:52:04;1.80;99.80
19680;DHT22;9989;48.962;9.182;2023-02-28T07:54:30;1.80;99.90
19680;DHT22;9989;48.962;9.182;2023-02-28T07:56:55;1.90;99.60
19680;DHT22;9989;48.962;9.182;2023-02-28T07:59:21;1.90;99.50
19680;DHT22;9989;48.962;9.182;2023-02-28T08:01:46;1.90;99.30
19680;DHT22;9989;48.962;9.182;2023-02-28T08:04:14;2.00;99.60
19680;DHT22;9989;48.962;9.182;2023-02-28T08:06:40;2.00;99.80
19680;DHT22;9989;48.962;9.182;2023-02-28T08:09:06;2.10;99.60
19680;DHT22;9989;48.962;9.182;2023-02-28T08:11:31;2.10;99.50
19680;DHT22;9989;48.962;9.182;2023-02-28T08:13:57;2.10;99.40
19680;DHT22;9989;48.962;9.182;2023-02-28T08:16:22;2.10;99.20
19680;DHT22;9989;48.962;9.182;2023-02-28T08:18:49;2.20;99.30
19680;DHT22;9989;48.962;9.182;2023-02-28T08:21:15;2.10;99.30
19680;DHT22;9989;48.962;9.182;2023-02-28T08:23:41;2.20;99.60
19680;DHT22;9989;48.962;9.182;2023-02-28T08:26:07;2.40;99.40
19680;DHT22;9989;48.962;9.182;2023-02-28T08:28:32;2.50;99.10
19680;DHT22;9989;48.962;9.182;2023-02-28T08:30:58;2.60;98.50
19680;DHT22;9989;48.962;9.182;2023-02-28T08:33:24;2.80;98.20
19680;DHT22;9989;48.962;9.182;2023-02-28T08:35:55;3.00;98.10
19680;DHT22;9989;48.962;9.182;2023-02-28T08:38:21;3.10;97.10
19680;DHT22;9989;48.962;9.182;2023-02-28T08:40:46;3.20;97.30
19680;DHT22;9989;48.962;9.182;2023-02-28T08:43:12;3.30;97.20
19680;DHT22;9989;48.962;9.182;2023-02-28T08:45:38;3.40;96.90
19680;DHT22;9989;48.962;9.182;2023-02-28T08:48:03;3.50;96.40
19680;DHT22;9989;48.962;9.182;2023-02-28T08:50:29;3.60;96.10
19680;DHT22;9989;48.962;9.182;2023-02-28T08:52:54;3.70;95.60
19680;DHT22;9989;48.962;9.182;2023-02-28T08:55:20;4.00;95.40
19680;DHT22;9989;48.962;9.182;2023-02-28T08:57:46;4.50;94.90
19680;DHT22;9989;48.962;9.182;2023-02-28T09:00:12;5.80;93.90
19680;DHT22;9989;48.962;9.182;2023-02-28T09:02:39;7.50;91.50
19680;DHT22;9989;48.962;9.182;2023-02-28T09:05:05;8.80;85.10
19680;DHT22;9989;48.962;9.182;2023-02-28T09:07:31;9.30;79.60
19680;DHT22;9989;48.962;9.182;2023-02-28T09:09:57;9.50;77.30
19680;DHT22;9989;48.962;9.182;2023-02-28T09:12:27;9.80;75.30
19680;DHT22;9989;48.962;9.182;2023-02-28T09:14:53;10.40;73.20
19680;DHT22;9989;48.962;9.182;2023-02-28T09:17:19;11.10;69.60
19680;DHT22;9989;48.962;9.182;2023-02-28T09:19:48;11.30;66.30
19680;DHT22;9989;48.962;9.182;2023-02-28T09:22:14;11.50;64.50
19680;DHT22;9989;48.962;9.182;2023-02-28T09:24:40;11.40;63.20
19680;DHT22;9989;48.962;9.182;2023-02-28T09:27:05;11.50;63.10
19680;DHT22;9989;48.962;9.182;2023-02-28T09:29:33;11.40;63.20
19680;DHT22;9989;48.962;9.182;2023-02-28T09:31:59;11.30;62.10
19680;DHT22;9989;48.962;9.182;2023-02-28T09:34:26;10.70;63.10
19680;DHT22;9989;48.962;9.182;2023-02-28T09:36:52;10.00;64.50
19680;DHT22;9989;48.962;9.182;2023-02-28T09:39:20;9.30;66.50
19680;DHT22;9989;48.962;9.182;2023-02-28T09:41:50;8.70;68.50
19680;DHT22;9989;48.962;9.182;2023-02-28T09:46:55;7.70;72.10
19680;DHT22;9989;48.962;9.182;2023-02-28T09:49:31;7.40;73.10
19680;DHT22;9989;48.962;9.182;2023-02-28T09:52:09;7.10;74.10
19680;DHT22;9989;48.962;9.182;2023-02-28T09:54:36;6.80;75.40
19680;DHT22;9989;48.962;9.182;2023-02-28T09:57:11;6.60;76.20
19680;DHT22;9989;48.962;9.182;2023-02-28T09:59:51;6.50;77.10
19680;DHT22;9989;48.962;9.182;2023-02-28T10:05:13;6.10;77.30
19680;DHT22;9989;48.962;9.182;2023-02-28T10:08:03;5.90;78.60
19680;DHT22;9989;48.962;9.182;2023-02-28T10:10:39;5.90;79.00
19680;DHT22;9989;48.962;9.182;2023-02-28T10:13:13;5.80;80.30
19680;DHT22;9989;48.962;9.182;2023-02-28T10:15:39;5.80;79.30
19680;DHT22;9989;48.962;9.182;2023-02-28T10:18:19;5.80;79.80
19680;DHT22;9989;48.962;9.182;2023-02-28T10:20:47;5.80;80.20
19680;DHT22;9989;48.962;9.182;2023-02-28T10:23:25;5.70;80.30
19680;DHT22;9989;48.962;9.182;2023-02-28T10:26:00;5.60;80.50
19680;DHT22;9989;48.962;9.182;2023-02-28T10:28:26;5.70;80.10
19680;DHT22;9989;48.962;9.182;2023-02-28T10:30:55;5.70;79.80
19680;DHT22;9989;48.962;9.182;2023-02-28T10:33:30;5.70;79.50
19680;DHT22;9989;48.962;9.182;2023-02-28T10:35:56;5.90;79.00
19680;DHT22;9989;48.962;9.182;2023-02-28T10:38:28;6.10;78.70
19680;DHT22;9989;48.962;9.182;2023-02-28T10:41:08;6.40;78.00
19680;DHT22;9989;48.962;9.182;2023-02-28T10:43:35;6.80;77.70
19680;DHT22;9989;48.962;9.182;2023-02-28T10:48:45;7.40;75.20
19680;DHT22;9989;48.962;9.182;2023-02-28T10:51:15;7.50;74.70
19680;DHT22;9989;48.962;9.182;2023-02-28T10:53:52;7.50;74.60
19680;DHT22;9989;48.962;9.182;2023-02-28T10:56:20;7.60;74.10
19680;DHT22;9989;48.962;9.182;2023-02-28T10:58:56;7.90;73.60
19680;DHT22;9989;48.962;9.182;2023-02-28T11:01:46;8.30;72.90
19680;DHT22;9989;48.962;9.182;2023-02-28T11:09:55;10.30;67.40
19680;DHT22;9989;48.962;9.182;2023-02-28T11:12:38;10.20;65.90
19680;DHT22;9989;48.962;9.182;2023-02-28T11:15:19;10.10;65.60
19680;DHT22;9989;48.962;9.182;2023-02-28T11:20:38;11.20;64.40
19680;DHT22;9989;48.962;9.182;2023-02-28T11:23:11;12.40;61.90
19680;DHT22;9989;48.962;9.182;2023-02-28T11:25:38;13.80;58.20
19680;DHT22;9989;48.962;9.182;2023-02-28T11:28:06;15.30;55.30
19680;DHT22;9989;48.962;9.182;2023-02-28T11:31:15;16.80;52.50
19680;DHT22;9989;48.962;9.182;2023-02-28T11:36:25;19.70;45.60
19680;DHT22;9989;48.962;9.182;2023-02-28T11:38:54;20.80;42.80
19680;DHT22;9989;48.962;9.182;2023-02-28T11:46:51;22.80;36.70
19680;DHT22;9989;48.962;9.182;2023-02-28T11:57:30;23.10;34.80
19680;DHT22;9989;48.962;9.182;2023-02-28T12:03:12;24.60;33.40
19680;DHT22;9989;48.962;9.182;2023-02-28T12:11:53;26.30;32.60
19680;DHT22;9989;48.962;9.182;2023-02-28T12:17:06;28.70;29.90
19680;DHT22;9989;48.962;9.182;2023-02-28T12:25:22;29.60;27.60
19680;DHT22;9989;48.962;9.182;2023-02-28T12:27:51;29.40;27.30
19680;DHT22;9989;48.962;9.182;2023-02-28T12:30:25;29.10;27.20
19680;DHT22;9989;48.962;9.182;2023-02-28T12:33:07;28.70;27.60
19680;DHT22;9989;48.962;9.182;2023-02-28T12:35:52;28.30;27.20
19680;DHT22;9989;48.962;9.182;2023-02-28T12:38:40;27.60;28.10
19680;DHT22;9989;48.962;9.182;2023-02-28T12:41:17;27.20;28.20
19680;DHT22;9989;48.962;9.182;2023-02-28T12:43:58;27.50;28.50
19680;DHT22;9989;48.962;9.182;2023-02-28T12:46:52;27.50;28.50
19680;DHT22;9989;48.962;9.182;2023-02-28T12:49:27;27.90;27.90
19680;DHT22;9989;48.962;9.182;2023-02-28T12:51:55;28.40;28.10
19680;DHT22;9989;48.962;9.182;2023-02-28T12:54:32;28.80;28.00
19680;DHT22;9989;48.962;9.182;2023-02-28T12:59:50;28.50;27.50
19680;DHT22;9989;48.962;9.182;2023-02-28T13:05:34;28.00;27.60
19680;DHT22;9989;48.962;9.182;2023-02-28T13:10:49;26.80;28.00
19680;DHT22;9989;48.962;9.182;2023-02-28T13:13:27;26.40;28.50
19680;DHT22;9989;48.962;9.182;2023-02-28T13:16:10;25.90;29.50
19680;DHT22;9989;48.962;9.182;2023-02-28T13:18:43;25.90;29.80
19680;DHT22;9989;48.962;9.182;2023-02-28T13:21:22;26.10;29.40
19680;DHT22;9989;48.962;9.182;2023-02-28T13:34:32;25.80;29.40
19680;DHT22;9989;48.962;9.182;2023-02-28T13:39:54;26.20;28.80
19680;DHT22;9989;48.962;9.182;2023-02-28T13:42:34;25.80;29.40
19680;DHT22;9989;48.962;9.182;2023-02-28T13:47:45;25.80;29.50
19680;DHT22;9989;48.962;9.182;2023-02-28T13:50:24;25.70;29.50
19680;DHT22;9989;48.962;9.182;2023-02-28T13:55:46;25.80;29.20
19680;DHT22;9989;48.962;9.182;2023-02-28T14:06:33;25.10;29.80
19680;DHT22;9989;48.962;9.182;2023-02-28T14:11:32;24.30;30.20
19680;DHT22;9989;48.962;9.182;2023-02-28T14:13:59;24.00;30.50
19680;DHT22;9989;48.962;9.182;2023-02-28T14:16:48;23.50;31.20
19680;DHT22;9989;48.962;9.182;2023-02-28T14:19:27;23.00;32.20
19680;DHT22;9989;48.962;9.182;2023-02-28T14:24:52;22.70;32.80
19680;DHT22;9989;48.962;9.182;2023-02-28T14:27:45;22.50;33.00
19680;DHT22;9989;48.962;9.182;2023-02-28T14:33:35;21.40;34.30
19680;DHT22;9989;48.962;9.182;2023-02-28T14:35:48;21.10;34.50
19680;DHT22;9989;48.962;9.182;2023-02-28T14:38:29;21.00;34.80
19680;DHT22;9989;48.962;9.182;2023-02-28T14:40:58;20.90;34.90
19680;DHT22;9989;48.962;9.182;2023-02-28T14:43:27;20.80;35.20
19680;DHT22;9989;48.962;9.182;2023-02-28T14:46:02;20.80;35.40
19680;DHT22;9989;48.962;9.182;2023-02-28T14:48:28;21.00;35.30
19680;DHT22;9989;48.962;9.182;2023-02-28T14:50:57;21.20;35.60
19680;DHT22;9989;48.962;9.182;2023-02-28T14:53:26;21.50;35.00
19680;DHT22;9989;48.962;9.182;2023-02-28T14:55:52;21.50;34.80
19680;DHT22;9989;48.962;9.182;2023-02-28T14:58:26;21.20;34.70
19680;DHT22;9989;48.962;9.182;2023-02-28T15:00:54;21.00;35.90
19680;DHT22;9989;48.962;9.182;2023-02-28T15:03:33;20.70;35.00
19680;DHT22;9989;48.962;9.182;2023-02-28T15:06:14;20.00;36.10
19680;DHT22;9989;48.962;9.182;2023-02-28T15:08:39;19.50;36.90
19680;DHT22;9989;48.962;9.182;2023-02-28T15:11:08;19.70;36.60
19680;DHT22;9989;48.962;9.182;2023-02-28T15:13:44;19.80;36.60
19680;DHT22;9989;48.962;9.182;2023-02-28T15:19:00;20.50;36.00
19680;DHT22;9989;48.962;9.182;2023-02-28T15:21:30;21.00;35.70
19680;DHT22;9989;48.962;9.182;2023-02-28T15:24:01;21.20;35.40
19680;DHT22;9989;48.962;9.182;2023-02-28T15:26:36;21.00;35.40
19680;DHT22;9989;48.962;9.182;2023-02-28T15:29:13;20.70;35.30
19680;DHT22;9989;48.962;9.182;2023-02-28T15:31:49;20.60;35.80
19680;DHT22;9989;48.962;9.182;2023-02-28T15:34:38;20.80;35.90
19680;DHT22;9989;48.962;9.182;2023-02-28T15:40:13;21.00;36.00
19680;DHT22;9989;48.962;9.182;2023-02-28T15:42:38;21.00;35.70
19680;DHT22;9989;48.962;9.182;2023-02-28T15:45:04;21.10;35.80
19680;DHT22;9989;48.962;9.182;2023-02-28T15:47:30;20.80;35.60
19680;DHT22;9989;48.962;9.182;2023-02-28T15:49:57;20.70;35.70
19680;DHT22;9989;48.962;9.182;2023-02-28T15:52:38;20.40;35.90
19680;DHT22;9989;48.962;9.182;2023-02-28T15:55:32;20.00;36.30
19680;DHT22;9989;48.962;9.182;2023-02-28T15:58:01;19.40;38.00
19680;DHT22;9989;48.962;9.182;2023-02-28T16:00:31;18.70;37.90
19680;DHT22;9989;48.962;9.182;2023-02-28T16:02:58;18.10;38.90
19680;DHT22;9989;48.962;9.182;2023-02-28T16:05:29;17.60;39.70
19680;DHT22;9989;48.962;9.182;2023-02-28T16:08:01;16.90;40.30
19680;DHT22;9989;48.962;9.182;2023-02-28T16:10:28;16.40;41.50
19680;DHT22;9989;48.962;9.182;2023-02-28T16:12:56;15.70;42.50
19680;DHT22;9989;48.962;9.182;2023-02-28T16:15:27;15.10;43.80
19680;DHT22;9989;48.962;9.182;2023-02-28T16:17:55;14.50;45.00
19680;DHT22;9989;48.962;9.182;2023-02-28T16:20:39;13.90;45.90
19680;DHT22;9989;48.962;9.182;2023-02-28T16:23:05;13.20;47.20
19680;DHT22;9989;48.962;9.182;2023-02-28T16:25:36;12.60;48.20
19680;DHT22;9989;48.962;9.182;2023-02-28T16:28:02;12.10;49.50
19680;DHT22;9989;48.962;9.182;2023-02-28T16:30:29;11.50;50.60
19680;DHT22;9989;48.962;9.182;2023-02-28T16:32:58;11.10;51.60
19680;DHT22;9989;48.962;9.182;2023-02-28T16:35:24;10.60;52.90
19680;DHT22;9989;48.962;9.182;2023-02-28T16:37:53;10.20;53.70
19680;DHT22;9989;48.962;9.182;2023-02-28T16:40:22;9.90;54.50
19680;DHT22;9989;48.962;9.182;2023-02-28T16:42:54;9.60;55.30
19680;DHT22;9989;48.962;9.182;2023-02-28T16:45:23;9.40;55.90
19680;DHT22;9989;48.962;9.182;2023-02-28T16:47:50;9.10;56.70
19680;DHT22;9989;48.962;9.182;2023-02-28T16:50:23;8.90;57.30
19680;DHT22;9989;48.962;9.182;2023-02-28T16:52:50;8.70;58.00
19680;DHT22;9989;48.962;9.182;2023-02-28T16:55:18;8.50;58.20
19680;DHT22;9989;48.962;9.182;2023-02-28T16:57:46;8.40;58.70
19680;DHT22;9989;48.962;9.182;2023-02-28T17:00:13;8.30;59.10
19680;DHT22;9989;48.962;9.182;2023-02-28T17:02:39;8.20;59.30
19680;DHT22;9989;48.962;9.182;2023-02-28T17:05:05;8.10;59.40
19680;DHT22;9989;48.962;9.182;2023-02-28T17:07:31;8.00;59.80
19680;DHT22;9989;48.962;9.182;2023-02-28T17:09:57;7.80;60.30
19680;DHT22;9989;48.962;9.182;2023-02-28T17:12:23;7.70;60.70
19680;DHT22;9989;48.962;9.182;2023-02-28T17:14:49;7.60;61.20
19680;DHT22;9989;48.962;9.182;2023-02-28T17:17:20;7.50;61.50
19680;DHT22;9989;48.962;9.182;2023-02-28T17:19:47;7.40;61.80
19680;DHT22;9989;48.962;9.182;2023-02-28T17:22:13;7.30;61.80
19680;DHT22;9989;48.962;9.182;2023-02-28T17:24:39;7.30;62.20
19680;DHT22;9989;48.962;9.182;2023-02-28T17:27:04;7.20;62.50
19680;DHT22;9989;48.962;9.182;2023-02-28T17:29:31;7.10;62.80
19680;DHT22;9989;48.962;9.182;2023-02-28T17:31:56;7.00;63.30
19680;DHT22;9989;48.962;9.182;2023-02-28T17:34:22;6.90;63.50
19680;DHT22;9989;48.962;9.182;2023-02-28T17:36:49;6.90;63.70
19680;DHT22;9989;48.962;9.182;2023-02-28T17:39:16;6.80;63.90
19680;DHT22;9989;48.962;9.182;2023-02-28T17:41:50;6.80;64.00
19680;DHT22;9989;48.962;9.182;2023-02-28T17:44:17;6.80;64.10
19680;DHT22;9989;48.962;9.182;2023-02-28T17:46:43;6.80;64.30
19680;DHT22;9989;48.962;9.182;2023-02-28T17:49:09;6.70;64.20
19680;DHT22;9989;48.962;9.182;2023-02-28T17:51:35;6.70;64.30
19680;DHT22;9989;48.962;9.182;2023-02-28T17:54:01;6.70;64.60
19680;DHT22;9989;48.962;9.182;2023-02-28T17:56:26;6.70;64.70
19680;DHT22;9989;48.962;9.182;2023-02-28T17:58:54;6.60;64.80
19680;DHT22;9989;48.962;9.182;2023-02-28T18:01:20;6.60;65.00
19680;DHT22;9989;48.962;9.182;2023-02-28T18:03:47;6.60;65.20
19680;DHT22;9989;48.962;9.182;2023-02-28T18:08:47;6.40;65.90
19680;DHT22;9989;48.962;9.182;2023-02-28T18:11:13;6.40;66.40
19680;DHT22;9989;48.962;9.182;2023-02-28T18:13:45;6.30;66.60
19680;DHT22;9989;48.962;9.182;2023-02-28T18:16:11;6.30;66.90
19680;DHT22;9989;48.962;9.182;2023-02-28T18:18:37;6.20;67.20
19680;DHT22;9989;48.962;9.182;2023-02-28T18:21:04;6.10;67.80
19680;DHT22;9989;48.962;9.182;2023-02-28T18:23:30;6.10;68.50
19680;DHT22;9989;48.962;9.182;2023-02-28T18:25:56;6.00;69.00
19680;DHT22;9989;48.962;9.182;2023-02-28T18:28:23;5.90;69.60
19680;DHT22;9989;48.962;9.182;2023-02-28T18:30:49;5.90;70.20
19680;DHT22;9989;48.962;9.182;2023-02-28T18:33:14;5.80;70.40
19680;DHT22;9989;48.962;9.182;2023-02-28T18:35:40;5.80;70.80